createdAt,value
2019-03-24T00:02:21.333Z,81.10
2019-03-24T00:04:53.965Z,80.20
2019-03-24T00:07:23.971Z,79.70
2019-03-24T00:09:59.656Z,80.40
2019-03-24T00:12:32.356Z,80.50
2019-03-24T00:15:05.777Z,81.20
2019-03-24T00:17:35.431Z,81.80
2019-03-24T00:20:05.576Z,80.30
2019-03-24T00:22:35.348Z,80.90
2019-03-24T00:25:05.157Z,80.50
2019-03-24T00:27:34.850Z,81.30
2019-03-24T00:30:04.589Z,81.20
2019-03-24T00:32:34.392Z,82.20
2019-03-24T00:35:04.170Z,81.10
2019-03-24T00:37:33.854Z,80.70
2019-03-24T00:40:03.663Z,80.20
2019-03-24T00:42:33.352Z,80.80
2019-03-24T00:45:02.994Z,81.00
2019-03-24T00:47:32.630Z,80.80
2019-03-24T00:50:02.337Z,81.80
2019-03-24T00:52:32.274Z,81.70
2019-03-24T00:55:02.000Z,81.00
2019-03-24T00:57:31.628Z,82.20
2019-03-24T01:00:03.941Z,81.60
2019-03-24T01:02:33.835Z,81.70
2019-03-24T01:05:03.588Z,81.70
2019-03-24T01:07:33.339Z,81.80
2019-03-24T01:10:03.084Z,82.00
2019-03-24T01:12:32.907Z,82.10
2019-03-24T01:15:02.709Z,82.00
2019-03-24T01:17:32.464Z,81.00
2019-03-24T01:20:02.289Z,80.60
2019-03-24T01:22:32.024Z,80.80
2019-03-24T01:25:01.841Z,79.80
2019-03-24T01:27:31.666Z,80.00
2019-03-24T01:30:01.414Z,79.50
2019-03-24T01:32:31.323Z,79.60
2019-03-24T01:35:00.949Z,80.10
2019-03-24T01:37:30.812Z,80.20
2019-03-24T01:40:00.659Z,80.30
2019-03-24T01:42:30.411Z,81.30
2019-03-24T01:45:00.251Z,80.50
2019-03-24T01:47:30.180Z,79.80
2019-03-24T01:49:59.961Z,80.30
2019-03-24T01:52:29.580Z,79.70
2019-03-24T01:54:59.286Z,79.80
2019-03-24T01:57:28.989Z,79.50
2019-03-24T01:59:58.812Z,80.10
2019-03-24T02:02:28.584Z,79.70
2019-03-24T02:04:58.431Z,80.20
2019-03-24T02:07:28.259Z,80.70
2019-03-24T02:09:58.013Z,80.30
2019-03-24T02:12:27.830Z,80.80
2019-03-24T02:14:57.455Z,79.80
2019-03-24T02:17:27.099Z,79.60
2019-03-24T02:19:56.720Z,79.60
2019-03-24T02:22:26.391Z,80.10
2019-03-24T02:24:56.171Z,79.20
2019-03-24T02:27:25.996Z,80.10
2019-03-24T02:29:55.743Z,80.20
2019-03-24T02:32:25.572Z,79.80
2019-03-24T02:34:55.211Z,81.20
2019-03-24T02:37:24.860Z,79.90
2019-03-24T02:39:54.430Z,79.70
2019-03-24T02:42:24.325Z,80.10
2019-03-24T02:44:53.995Z,80.90
2019-03-24T02:47:23.733Z,80.20
2019-03-24T02:49:53.721Z,80.20
2019-03-24T02:52:23.396Z,81.20
2019-03-24T02:54:53.068Z,80.40
2019-03-24T02:57:22.944Z,79.60
2019-03-24T02:59:52.732Z,79.40
2019-03-24T03:02:22.504Z,79.80
2019-03-24T03:04:52.259Z,79.70
2019-03-24T03:07:22.055Z,79.50
2019-03-24T03:09:51.881Z,81.60
2019-03-24T03:12:21.701Z,80.70
2019-03-24T03:14:51.384Z,80.70
2019-03-24T03:17:21.324Z,80.70
2019-03-24T03:19:53.574Z,80.50
2019-03-24T03:22:22.479Z,80.20
2019-03-24T03:24:52.263Z,80.50
2019-03-24T03:27:21.891Z,80.00
2019-03-24T03:29:51.728Z,79.60
2019-03-24T03:32:21.461Z,80.10
2019-03-24T03:34:51.183Z,79.90
2019-03-24T03:37:21.047Z,79.70
2019-03-24T03:39:50.753Z,79.70
2019-03-24T03:42:20.674Z,79.50
2019-03-24T03:44:50.495Z,79.70
2019-03-24T03:47:20.257Z,79.80
2019-03-24T03:49:49.932Z,80.50
2019-03-24T03:52:19.702Z,79.80
2019-03-24T03:54:49.472Z,80.40
2019-03-24T03:57:19.236Z,80.60
2019-03-24T03:59:48.993Z,80.40
2019-03-24T04:02:18.632Z,80.00
2019-03-24T04:04:48.254Z,79.70
2019-03-24T04:07:17.823Z,80.20
2019-03-24T04:09:47.448Z,79.50
2019-03-24T04:12:17.108Z,80.20
2019-03-24T04:14:46.769Z,80.20
2019-03-24T04:17:16.598Z,79.70
2019-03-24T04:19:46.251Z,79.80
2019-03-24T04:22:15.896Z,79.30
2019-03-24T04:24:45.830Z,79.40
2019-03-24T04:27:15.582Z,79.50
2019-03-24T04:29:45.332Z,79.40
2019-03-24T04:32:15.178Z,79.70
2019-03-24T04:34:44.825Z,79.50
2019-03-24T04:37:14.488Z,79.30
2019-03-24T04:39:44.116Z,79.40
2019-03-24T04:42:13.969Z,79.30
2019-03-24T04:44:43.787Z,79.50
2019-03-24T04:47:16.774Z,80.00
2019-03-24T04:49:44.796Z,80.40
2019-03-24T04:52:14.550Z,80.60
2019-03-24T04:54:44.246Z,80.10
2019-03-24T04:57:13.912Z,80.40
2019-03-24T04:59:43.728Z,80.40
2019-03-24T05:02:13.407Z,80.00
2019-03-24T05:04:43.051Z,80.60
2019-03-24T05:07:12.969Z,80.40
2019-03-24T05:09:43.140Z,80.60
2019-03-24T05:12:12.866Z,80.40
2019-03-24T05:14:42.752Z,80.10
2019-03-24T05:17:12.508Z,80.30
2019-03-24T05:19:42.219Z,80.60
2019-03-24T05:22:11.863Z,80.30
2019-03-24T05:24:41.696Z,80.60
2019-03-24T05:27:11.371Z,80.40
2019-03-24T05:29:40.978Z,80.50
2019-03-24T05:32:10.639Z,80.80
2019-03-24T05:34:40.305Z,80.50
2019-03-24T05:37:10.207Z,80.00
2019-03-24T05:39:39.883Z,80.60
2019-03-24T05:42:09.587Z,79.90
2019-03-24T05:44:39.286Z,80.20
2019-03-24T05:47:08.862Z,80.50
2019-03-24T05:49:38.729Z,80.20
2019-03-24T05:52:08.295Z,80.20
2019-03-24T05:54:37.926Z,80.00
2019-03-24T05:57:07.555Z,80.70
2019-03-24T05:59:37.465Z,80.20
2019-03-24T06:02:07.228Z,80.20
2019-03-24T06:04:37.168Z,80.50
2019-03-24T06:07:06.847Z,80.10
2019-03-24T06:09:37.071Z,80.80
2019-03-24T06:12:07.530Z,80.00
2019-03-24T06:14:37.416Z,80.20
2019-03-24T06:17:07.204Z,80.00
2019-03-24T06:19:36.928Z,81.10
2019-03-24T06:22:06.563Z,81.10
2019-03-24T06:24:39.082Z,80.40
2019-03-24T06:27:08.791Z,81.40
2019-03-24T06:29:41.972Z,80.60
2019-03-24T06:32:11.645Z,80.60
2019-03-24T06:34:41.461Z,82.30
2019-03-24T06:37:11.176Z,83.20
2019-03-24T06:39:43.712Z,84.20
2019-03-24T06:42:13.478Z,84.40
2019-03-24T06:44:43.396Z,84.70
2019-03-24T06:47:13.061Z,83.40
2019-03-24T06:49:43.297Z,83.50
2019-03-24T06:52:13.437Z,82.50
2019-03-24T06:54:44.189Z,84.80
2019-03-24T06:57:13.930Z,83.70
2019-03-24T06:59:43.795Z,86.00
2019-03-24T07:02:13.415Z,84.40
2019-03-24T07:04:43.265Z,84.00
2019-03-24T07:07:13.225Z,84.70
2019-03-24T07:09:42.849Z,84.60
2019-03-24T07:12:12.519Z,85.10
2019-03-24T07:14:42.256Z,84.40
2019-03-24T07:17:12.041Z,83.20
2019-03-24T07:19:41.810Z,85.80
2019-03-24T07:22:11.590Z,84.40
2019-03-24T07:24:41.391Z,86.60
2019-03-24T07:27:11.150Z,84.50
2019-03-24T07:30:05.658Z,85.00
2019-03-24T07:33:13.285Z,84.70
2019-03-24T07:36:41.298Z,85.40
2019-03-24T07:40:05.947Z,84.90
2019-03-24T07:42:38.074Z,85.00
2019-03-24T07:45:12.294Z,84.50
2019-03-24T07:47:42.273Z,84.70
2019-03-24T07:50:12.243Z,83.60
2019-03-24T07:52:51.855Z,84.30
2019-03-24T07:55:24.175Z,84.30
2019-03-24T07:57:54.332Z,83.70
2019-03-24T08:00:35.689Z,83.10
2019-03-24T08:03:05.585Z,83.30
2019-03-24T08:05:35.502Z,83.10
2019-03-24T08:08:05.728Z,83.00
2019-03-24T08:10:35.791Z,83.90
2019-03-24T08:13:06.031Z,83.00
2019-03-24T08:15:40.285Z,83.00
2019-03-24T08:18:29.982Z,82.30
2019-03-24T08:21:00.851Z,81.80
2019-03-24T08:23:50.069Z,81.70
2019-03-24T08:26:52.166Z,82.20
2019-03-24T08:29:22.905Z,81.90
2019-03-24T08:31:57.102Z,81.40
2019-03-24T08:34:29.803Z,81.80
2019-03-24T08:37:17.649Z,82.00
2019-03-24T08:40:02.966Z,81.10
2019-03-24T08:42:52.399Z,81.00
2019-03-24T08:45:38.129Z,80.00
2019-03-24T08:48:07.960Z,80.10
2019-03-24T08:51:10.518Z,81.30
2019-03-24T08:54:02.974Z,80.40
2019-03-24T08:57:04.249Z,80.90
2019-03-24T08:59:34.245Z,78.90
2019-03-24T09:02:04.119Z,78.10
2019-03-24T09:04:33.884Z,78.50
2019-03-24T09:07:03.579Z,78.20
2019-03-24T09:09:33.101Z,76.20
2019-03-24T09:12:03.225Z,77.20
2019-03-24T09:14:33.069Z,77.90
2019-03-24T09:17:17.018Z,78.00
2019-03-24T09:19:51.105Z,78.40
2019-03-24T09:22:20.961Z,78.20
2019-03-24T09:24:50.710Z,74.30
2019-03-24T09:27:20.365Z,74.70
2019-03-24T09:29:50.206Z,75.50
2019-03-24T09:32:19.953Z,74.90
2019-03-24T09:34:49.648Z,75.40
2019-03-24T09:37:25.759Z,76.60
2019-03-24T09:39:55.440Z,74.60
2019-03-24T09:42:25.552Z,75.20
2019-03-24T09:44:55.587Z,74.50
2019-03-24T09:47:25.635Z,75.30
2019-03-24T09:49:55.211Z,74.00
2019-03-24T09:52:26.143Z,75.00
2019-03-24T09:54:56.283Z,74.90
2019-03-24T09:57:26.288Z,75.20
2019-03-24T09:59:56.095Z,72.60
2019-03-24T10:02:27.052Z,74.60
2019-03-24T10:04:56.737Z,73.60
2019-03-24T10:07:26.728Z,74.20
2019-03-24T10:09:56.674Z,73.70
2019-03-24T10:12:26.579Z,71.10
2019-03-24T10:14:56.175Z,71.80
2019-03-24T10:17:25.936Z,72.80
2019-03-24T10:19:55.684Z,71.90
2019-03-24T10:22:25.529Z,72.90
2019-03-24T10:24:58.258Z,70.40
2019-03-24T10:27:28.089Z,71.90
2019-03-24T10:29:57.765Z,71.90
2019-03-24T10:32:27.527Z,71.90
2019-03-24T10:34:57.869Z,70.20
2019-03-24T10:37:27.543Z,69.30
2019-03-24T10:39:57.607Z,71.00
2019-03-24T10:42:27.287Z,71.20
2019-03-24T10:44:56.887Z,72.50
2019-03-24T10:47:27.647Z,70.90
2019-03-24T10:49:57.459Z,68.90
2019-03-24T10:52:27.763Z,67.70
2019-03-24T10:54:57.438Z,68.60
2019-03-24T10:57:27.248Z,69.20
2019-03-24T10:59:56.917Z,66.60
2019-03-24T11:02:26.879Z,67.20
2019-03-24T11:04:56.455Z,69.10
2019-03-24T11:07:26.042Z,69.00
2019-03-24T11:09:55.782Z,68.30
2019-03-24T11:12:25.482Z,68.20
2019-03-24T11:14:55.421Z,67.70
2019-03-24T11:17:25.206Z,69.20
2019-03-24T11:19:54.814Z,66.90
2019-03-24T11:22:24.566Z,67.90
2019-03-24T11:24:54.234Z,66.50
2019-03-24T11:27:23.963Z,67.20
2019-03-24T11:29:53.632Z,66.80
2019-03-24T11:32:23.200Z,64.90
2019-03-24T11:34:53.156Z,66.60
2019-03-24T11:37:22.807Z,66.70
2019-03-24T11:40:11.476Z,66.70
2019-03-24T11:42:41.182Z,66.20
2019-03-24T11:45:13.013Z,65.40
2019-03-24T11:47:42.840Z,65.70
2019-03-24T11:50:12.819Z,66.30
2019-03-24T11:52:42.438Z,65.90
2019-03-24T11:55:12.154Z,65.20
2019-03-24T11:57:44.037Z,67.80
2019-03-24T12:00:13.903Z,64.50
2019-03-24T12:02:43.562Z,65.70
2019-03-24T12:05:13.628Z,64.70
2019-03-24T12:07:43.472Z,65.70
2019-03-24T12:10:13.416Z,66.00
2019-03-24T12:12:43.304Z,64.80
2019-03-24T12:15:13.427Z,66.00
2019-03-24T12:17:43.174Z,66.50
2019-03-24T12:20:15.590Z,63.50
2019-03-24T12:22:45.243Z,61.10
2019-03-24T12:25:15.719Z,64.10
2019-03-24T12:27:46.454Z,63.50
2019-03-24T12:30:21.822Z,62.60
2019-03-24T12:32:51.648Z,62.70
2019-03-24T12:35:21.334Z,63.90
2019-03-24T12:37:51.152Z,62.60
2019-03-24T12:40:20.787Z,63.30
2019-03-24T12:42:50.422Z,61.90
2019-03-24T12:45:20.112Z,61.30
2019-03-24T12:47:50.006Z,62.50
2019-03-24T12:50:30.612Z,61.10
2019-03-24T12:53:00.267Z,61.50
2019-03-24T12:55:30.026Z,60.80
2019-03-24T12:57:59.687Z,62.00
2019-03-24T13:00:37.804Z,61.70
2019-03-24T13:03:07.988Z,60.80
2019-03-24T13:05:37.906Z,60.00
2019-03-24T13:08:17.899Z,61.40
2019-03-24T13:10:48.872Z,62.70
2019-03-24T13:13:18.710Z,62.70
2019-03-24T13:15:48.382Z,64.00
2019-03-24T13:18:18.082Z,63.40
2019-03-24T13:20:47.885Z,62.90
2019-03-24T13:23:17.636Z,64.40
2019-03-24T13:25:47.390Z,64.20
2019-03-24T13:28:17.289Z,63.50
2019-03-24T13:30:47.467Z,64.80
2019-03-24T13:33:17.458Z,64.00
2019-03-24T13:35:49.475Z,62.70
2019-03-24T13:38:19.635Z,61.80
2019-03-24T13:40:49.359Z,61.40
2019-03-24T13:43:19.548Z,61.50
2019-03-24T13:45:49.571Z,63.10
2019-03-24T13:48:19.496Z,62.10
2019-03-24T13:50:49.222Z,62.30
2019-03-24T13:53:18.946Z,62.00
2019-03-24T13:55:48.807Z,63.60
2019-03-24T13:58:18.451Z,62.80
2019-03-24T14:00:48.450Z,61.80
2019-03-24T14:03:18.253Z,62.60
2019-03-24T14:05:47.994Z,62.10
2019-03-24T14:08:17.762Z,61.10
2019-03-24T14:10:47.370Z,60.50
2019-03-24T14:13:17.163Z,61.30
2019-03-24T14:15:46.995Z,61.10
2019-03-24T14:18:16.844Z,62.90
2019-03-24T14:20:46.542Z,63.40
2019-03-24T14:23:16.386Z,62.80
2019-03-24T14:25:46.076Z,62.80
2019-03-24T14:28:15.739Z,61.90
2019-03-24T14:30:47.272Z,62.20
2019-03-24T14:33:17.218Z,63.00
2019-03-24T14:35:46.980Z,62.30
2019-03-24T14:38:16.658Z,62.60
2019-03-24T14:40:46.430Z,62.60
2019-03-24T14:43:16.184Z,61.20
2019-03-24T14:45:45.856Z,63.30
2019-03-24T14:48:15.912Z,63.50
2019-03-24T14:50:53.820Z,62.60
2019-03-24T14:53:17.166Z,62.20
2019-03-24T14:55:46.980Z,63.50
2019-03-24T14:58:16.763Z,62.80
2019-03-24T15:00:46.485Z,63.70
2019-03-24T15:03:16.580Z,62.20
2019-03-24T15:05:46.337Z,62.30
2019-03-24T15:08:16.156Z,60.90
2019-03-24T15:10:45.839Z,60.10
2019-03-24T15:13:15.768Z,61.40
2019-03-24T15:15:45.616Z,61.30
2019-03-24T15:18:15.287Z,60.60
2019-03-24T15:20:45.103Z,60.60
2019-03-24T15:23:14.841Z,61.40
2019-03-24T15:25:44.548Z,59.70
2019-03-24T15:28:14.341Z,60.60
2019-03-24T15:30:44.021Z,61.30
2019-03-24T15:33:13.811Z,61.20
2019-03-24T15:35:43.678Z,61.30
2019-03-24T15:38:13.379Z,61.90
2019-03-24T15:40:43.124Z,61.60
2019-03-24T15:43:12.952Z,61.30
2019-03-24T15:45:42.708Z,60.90
2019-03-24T15:48:12.464Z,61.80
2019-03-24T15:50:42.290Z,62.80
2019-03-24T15:53:11.985Z,62.20
2019-03-24T15:55:44.204Z,63.20
2019-03-24T15:58:14.051Z,63.30
2019-03-24T16:00:48.917Z,60.80
2019-03-24T16:03:19.228Z,62.50
2019-03-24T16:05:49.312Z,62.40
2019-03-24T16:08:19.048Z,62.70
2019-03-24T16:10:48.850Z,62.50
2019-03-24T16:13:18.581Z,62.00
2019-03-24T16:15:48.299Z,61.90
2019-03-24T16:18:18.001Z,62.50
2019-03-24T16:20:47.924Z,62.20
2019-03-24T16:23:17.662Z,63.00
2019-03-24T16:25:47.530Z,64.20
2019-03-24T16:28:17.311Z,64.20
2019-03-24T16:30:47.206Z,64.00
2019-03-24T16:33:17.018Z,64.00
2019-03-24T16:35:46.925Z,63.80
2019-03-24T16:38:16.585Z,64.30
2019-03-24T16:40:46.738Z,63.50
2019-03-24T16:43:16.414Z,64.70
2019-03-24T16:46:05.222Z,64.20
2019-03-24T16:48:37.017Z,65.10
2019-03-24T16:51:06.489Z,65.40
2019-03-24T16:53:36.347Z,65.70
2019-03-24T16:56:06.509Z,66.00
2019-03-24T16:58:36.203Z,65.20
2019-03-24T17:01:06.075Z,65.10
2019-03-24T17:03:35.916Z,65.70
2019-03-24T17:06:05.868Z,65.50
2019-03-24T17:08:35.606Z,66.00
2019-03-24T17:11:05.447Z,66.30
2019-03-24T17:13:35.080Z,66.60
2019-03-24T17:16:05.040Z,66.60
2019-03-24T17:18:34.825Z,66.90
2019-03-24T17:21:04.555Z,67.20
2019-03-24T17:23:34.203Z,67.10
2019-03-24T17:26:04.020Z,66.50
2019-03-24T17:28:34.037Z,66.60
2019-03-24T17:31:22.565Z,67.50
2019-03-24T17:33:52.365Z,68.00
2019-03-24T17:36:22.072Z,67.70
2019-03-24T17:38:51.960Z,66.80
2019-03-24T17:41:21.677Z,66.80
2019-03-24T17:43:51.411Z,65.80
2019-03-24T17:46:21.088Z,65.40
2019-03-24T17:48:50.896Z,65.60
2019-03-24T17:51:20.713Z,65.30
2019-03-24T17:53:50.607Z,65.30
2019-03-24T17:56:20.466Z,65.70
2019-03-24T17:58:50.256Z,67.00
2019-03-24T18:01:20.144Z,66.60
2019-03-24T18:03:50.000Z,66.60
2019-03-24T18:06:19.902Z,67.10
2019-03-24T18:08:49.699Z,67.20
2019-03-24T18:11:19.453Z,67.70
2019-03-24T18:13:49.180Z,67.90
2019-03-24T18:16:19.272Z,67.80
2019-03-24T18:18:49.063Z,67.90
2019-03-24T18:21:18.619Z,68.30
2019-03-24T18:23:48.544Z,68.10
2019-03-24T18:26:18.444Z,68.80
2019-03-24T18:28:48.095Z,68.50
2019-03-24T18:31:17.659Z,69.10
2019-03-24T18:33:47.900Z,69.10
2019-03-24T18:36:17.787Z,69.50
2019-03-24T18:38:47.556Z,69.10
2019-03-24T18:41:17.897Z,69.00
2019-03-24T18:43:47.554Z,69.00
2019-03-24T18:46:17.302Z,68.90
2019-03-24T18:48:47.256Z,69.20
2019-03-24T18:51:17.010Z,69.10
2019-03-24T18:53:46.702Z,69.10
2019-03-24T18:56:16.343Z,69.10
2019-03-24T18:58:46.185Z,69.10
2019-03-24T19:01:15.834Z,69.30
2019-03-24T19:03:45.503Z,69.10
2019-03-24T19:06:16.957Z,69.10
2019-03-24T19:08:46.647Z,69.30
2019-03-24T19:11:16.326Z,69.10
2019-03-24T19:13:46.128Z,69.20
2019-03-24T19:16:16.015Z,69.40
2019-03-24T19:18:45.740Z,70.30
2019-03-24T19:21:15.596Z,69.40
2019-03-24T19:23:45.345Z,69.50
2019-03-24T19:26:15.156Z,69.50
2019-03-24T19:28:45.011Z,69.80
2019-03-24T19:31:14.973Z,70.00
2019-03-24T19:33:44.668Z,69.80
2019-03-24T19:36:14.582Z,69.90
2019-03-24T19:38:44.341Z,69.70
2019-03-24T19:41:14.039Z,70.50
2019-03-24T19:43:43.999Z,70.80
2019-03-24T19:46:14.085Z,70.30
2019-03-24T19:48:43.971Z,70.00
2019-03-24T19:51:13.779Z,70.30
2019-03-24T19:53:43.438Z,70.40
2019-03-24T19:56:13.283Z,70.40
2019-03-24T19:58:42.888Z,71.40
2019-03-24T20:01:12.766Z,70.60
2019-03-24T20:03:43.581Z,70.60
2019-03-24T20:06:13.456Z,70.90
2019-03-24T20:08:43.307Z,71.00
2019-03-24T20:11:13.206Z,70.90
2019-03-24T20:13:43.036Z,71.00
2019-03-24T20:16:12.831Z,71.10
2019-03-24T20:18:42.684Z,71.20
2019-03-24T20:21:12.509Z,71.10
2019-03-24T20:23:42.127Z,71.50
2019-03-24T20:26:11.912Z,71.80
2019-03-24T20:28:41.768Z,71.90
2019-03-24T20:31:11.602Z,72.30
2019-03-24T20:33:41.432Z,72.10
2019-03-24T20:36:11.184Z,71.70
2019-03-24T20:38:40.878Z,72.10
2019-03-24T20:41:10.615Z,72.10
2019-03-24T20:43:40.415Z,72.40
2019-03-24T20:46:10.256Z,72.50
2019-03-24T20:48:40.027Z,72.30
2019-03-24T20:51:09.696Z,72.50
2019-03-24T20:53:39.594Z,72.60
2019-03-24T20:56:09.224Z,72.60
2019-03-24T20:58:38.987Z,72.50
2019-03-24T21:01:08.996Z,72.60
2019-03-24T21:03:40.998Z,72.60
2019-03-24T21:06:10.759Z,73.50
2019-03-24T21:08:40.565Z,72.60
2019-03-24T21:11:10.555Z,73.00
2019-03-24T21:13:40.338Z,73.10
2019-03-24T21:16:10.239Z,73.30
2019-03-24T21:18:40.378Z,73.50
2019-03-24T21:21:10.087Z,72.90
2019-03-24T21:23:40.182Z,74.50
2019-03-24T21:26:11.232Z,73.60
2019-03-24T21:28:41.139Z,74.70
2019-03-24T21:31:10.815Z,73.90
2019-03-24T21:33:40.825Z,73.80
2019-03-24T21:36:10.575Z,72.90
2019-03-24T21:38:40.419Z,73.90
2019-03-24T21:41:10.084Z,73.80
2019-03-24T21:43:39.974Z,73.90
2019-03-24T21:46:09.761Z,74.30
2019-03-24T21:48:39.517Z,74.10
2019-03-24T21:51:09.350Z,73.70
2019-03-24T21:53:40.919Z,74.60
2019-03-24T21:56:10.528Z,74.30
2019-03-24T21:58:40.316Z,74.50
2019-03-24T22:01:10.107Z,74.40
2019-03-24T22:03:40.002Z,74.40
2019-03-24T22:06:09.749Z,74.60
2019-03-24T22:08:39.599Z,75.10
2019-03-24T22:11:09.233Z,74.80
2019-03-24T22:13:38.943Z,75.50
2019-03-24T22:16:08.676Z,75.20
2019-03-24T22:18:38.370Z,75.30
2019-03-24T22:21:08.114Z,75.90
2019-03-24T22:23:37.862Z,75.50
2019-03-24T22:26:07.693Z,76.20
2019-03-24T22:28:37.380Z,76.70
2019-03-24T22:31:09.577Z,77.10
2019-03-24T22:33:39.291Z,76.40
2019-03-24T22:36:12.216Z,77.10
2019-03-24T22:38:47.504Z,77.40
2019-03-24T22:41:17.371Z,76.60
2019-03-24T22:43:48.019Z,75.90
2019-03-24T22:46:18.728Z,77.70
2019-03-24T22:48:52.449Z,76.50
2019-03-24T22:51:23.604Z,77.20
2019-03-24T22:54:02.979Z,76.30
2019-03-24T22:56:24.712Z,76.40
2019-03-24T22:58:54.341Z,77.60
2019-03-24T23:01:24.017Z,76.50
2019-03-24T23:03:53.807Z,77.20
2019-03-24T23:06:23.448Z,76.20
2019-03-24T23:08:53.123Z,76.50
2019-03-24T23:11:22.958Z,76.40
2019-03-24T23:13:52.615Z,76.00
2019-03-24T23:16:22.317Z,76.50
2019-03-24T23:19:03.172Z,76.00
2019-03-24T23:21:32.817Z,76.00
2019-03-24T23:24:02.551Z,76.00
2019-03-24T23:26:32.246Z,75.80
2019-03-24T23:29:01.878Z,75.60
2019-03-24T23:31:34.004Z,75.50
2019-03-24T23:34:03.339Z,75.40
2019-03-24T23:36:32.980Z,75.10
2019-03-24T23:39:02.727Z,74.80
2019-03-24T23:41:32.446Z,74.90
2019-03-24T23:44:04.021Z,74.60
2019-03-24T23:46:33.491Z,74.50
2019-03-24T23:49:03.433Z,74.30
2019-03-24T23:51:33.147Z,74.30
2019-03-24T23:54:02.843Z,74.30
2019-03-24T23:56:32.473Z,74.30
2019-03-24T23:59:02.113Z,74.50
